メインページ
METAR-TAF:

METAR-TAF

空港 :

スプリングフィールド / Chicopee, マサチューセッツ州, アメリカ合衆国

緯度: 42-12N, 経度: 072-32W, 海抜: 75m

現時点の気象観測

当レポートは1時間2分前の04:57(UTC)に作成
北/北東の風 8kt
気温 8°C
湿度 87%
気圧 1013 hPa
視程: 16.1km
高度600ftの雲はほとんどない
高度1500ftの千切れ雲あり
高度2200ftの曇り

METAR: KCEF 040457Z AUTO 03008KT 10SM FEW006 BKN015 OVC022 08/06 A2990 RMK AO2 CIG 008 RWY23 SLP132

時間: 01:59 (05:59 UTC)

予報

当レポートは3時間59分前の02:00(UTC)に作成
予報は04日の 02時(UTC)から 05日の 08時(UTC)まで有効
北/北東の風 12kt
視程10km以上
高度1500ftの千切れ雲あり
高度2500ftの曇り
04日の 13時(UTC)から 04日の 14時(UTC)まで徐々に
北/北東の風 10kt、最大15ktの突風を伴う
視程10km以上
高度2000ftの千切れ雲あり
高度4000ftの千切れ雲あり
04日の 21時(UTC)から 04日の 22時(UTC)まで徐々に
変向風 6kt
視程: 0410m
高度2000ftの雲はほとんどない
高度5000ftの千切れ雲あり

TAF: KCEF 040200Z 0402/0508 03012KT 9999 BKN015 OVC025 510054 QNH2987INS BECMG 0413/0414 03010G15KT 9999 BKN020 BKN040 510104 QNH2995INS BECMG 0421/0422 VRB06KT 9999 FEW020 BKN050 QNH2995INS TX11/0420Z TN06/0411Z LAST NO AMDS AFT 0403 NEXT 0410

4,000以上の空港の気象観測と天気予報(METAR報とTAF報)

利用可能な観測所は地図上に黄色い丸と赤い丸で示す。

丸の上にカーソルを重ねると観測所名を参照できる。

次にクリックすると気象観測と天気予報を参照できる。

マップの切り替え:黒色「×」印の緑ボタンをクリックして拡大、「-」印の緑ボタンをクリックして縮小、緑色の三角印をクリックして隣りの地図に切り替え


METAR-TAF: